Tropical Cyclones
[Index]
Main Index Home Page Stock Weather Photos Extreme Storms Discussion Storm News and Storm Chasing Reports Tropical Cyclones / Hurricanes / Typhoons Weather Data and Links Wild Fires / Bushfires Weather Observation Techniques Weather Picture Catalogue Tornado Pictures and Reports Stock Video Footage and DVDs for sale
Season 2004-2005 Tropical Cyclone NANCY Track Map
Season 2004-2005 Summaries: [BoM-AU] [JTWC-AU] [JTWC-SIO] [JTWC-SPAC] [JTWC-SH]
<<- Previous TC | JTWC 2004-2005 Season | Next TC ->>

click for intensity scale information  Lat/long Grid: Show Hide

 Date Labels: Show Hide

Joint Typhoon Warning Centre Cyclone Data

Name: NANCY

11 Feb 2005 06:00 UTC to 17 Feb 2005 06:00 UTC

    date/time    lat    long     hPa   cat  kts
2005-02-11 06   12.6   169.8W   1006         15          
2005-02-11 12   13.0   168.9W   1006         15          
2005-02-11 18   13.3   168.1W   1004         20          
2005-02-12 00   13.4   167.4W   1002         25          
2005-02-12 06   13.3   166.9W   1002         25          
2005-02-12 12   13.0   166.5W   1000         30          
2005-02-12 18   12.8   166.0W    997         35          
2005-02-13 00   12.8   165.4W    994    1    40          
2005-02-13 06   13.0   164.8W    991    1    45          
2005-02-13 12   13.2   164.5W    991    1    45          
2005-02-13 18   13.6   164.2W    987    1    50          
2005-02-14 00   13.9   164.0W    944    4   100          
2005-02-14 00   13.9   164.0W    944    4   100          
2005-02-14 00   13.9   164.0W    944    4   100          
2005-02-14 06   14.0   163.4W    922    4   120          
2005-02-14 06   14.0   163.4W    922    4   120          
2005-02-14 06   14.0   163.4W    922    4   120          
2005-02-14 12   14.3   162.2W    922    4   120          
2005-02-14 12   14.3   162.2W    922    4   120          
2005-02-14 12   14.3   162.2W    922    4   120          
2005-02-14 18   15.0   161.1W    916    5   125          
2005-02-14 18   15.0   161.1W    916    5   125          
2005-02-14 18   15.0   161.1W    916    5   125          
2005-02-15 00   16.3   159.8W    927    4   115          
2005-02-15 00   16.3   159.8W    927    4   115          
2005-02-15 00   16.3   159.8W    927    4   115          
2005-02-15 06   17.8   159.0W    938    4   105          
2005-02-15 06   17.8   159.0W    938    4   105          
2005-02-15 06   17.8   159.0W    938    4   105          
2005-02-15 12   19.3   158.7W    949    3    95          
2005-02-15 12   19.3   158.7W    949    3    95          
2005-02-15 12   19.3   158.7W    949    3    95          
2005-02-15 18   20.4   158.8W    954    3    90          
2005-02-15 18   20.4   158.8W    954    3    90          
2005-02-15 18   20.4   158.8W    954    3    90          
2005-02-16 00   21.4   159.1W    976    2    65          
2005-02-16 00   21.4   159.1W    976    2    65          
2005-02-16 06   22.3   159.4W    976    2    65          
2005-02-16 06   22.3   159.4W    976    2    65          
2005-02-16 12   23.1   160.0W    984    2    55          
2005-02-16 12   23.1   160.0W    984    2    55          
2005-02-16 18   23.9   161.3W   1000         30          
2005-02-17 00   24.5   162.7W   1000         30          
2005-02-17 06   24.7   163.5W   1000         30          
Winds are 1-min average.

Tropical cyclone tracks developed by Michael Bath using data from the Joint Typhoon Warning Centre Best Tracks and Google Maps.


[Australian Severe Weather index] [Copyright Notice] [Email Contacts] [Search This Site] [Privacy Policy]
Document: tropical_cyclone_nancy.htm Updated: 28 June 2017